sensor_id;sensor_type;location;lat;lon;timestamp;temperature;humidity
14934;DHT22;7560;51.364;12.384;2022-07-23T00:04:01;19.90;99.90
14934;DHT22;7560;51.364;12.384;2022-07-23T00:09:02;19.90;99.90
14934;DHT22;7560;51.364;12.384;2022-07-23T00:14:05;19.80;99.90
14934;DHT22;7560;51.364;12.384;2022-07-23T00:19:07;19.80;99.90
14934;DHT22;7560;51.364;12.384;2022-07-23T00:24:09;19.70;99.90
14934;DHT22;7560;51.364;12.384;2022-07-23T00:29:10;19.70;99.90
14934;DHT22;7560;51.364;12.384;2022-07-23T00:34:12;19.60;99.90
14934;DHT22;7560;51.364;12.384;2022-07-23T00:39:14;19.40;99.90
14934;DHT22;7560;51.364;12.384;2022-07-23T00:44:20;19.50;99.90
14934;DHT22;7560;51.364;12.384;2022-07-23T00:49:24;19.60;99.90
14934;DHT22;7560;51.364;12.384;2022-07-23T00:54:27;19.60;99.90
14934;DHT22;7560;51.364;12.384;2022-07-23T00:59:28;19.60;99.90
14934;DHT22;7560;51.364;12.384;2022-07-23T01:04:30;19.50;99.90
14934;DHT22;7560;51.364;12.384;2022-07-23T01:09:32;19.50;99.90
14934;DHT22;7560;51.364;12.384;2022-07-23T01:14:34;19.50;99.90
14934;DHT22;7560;51.364;12.384;2022-07-23T01:19:36;19.30;99.90
14934;DHT22;7560;51.364;12.384;2022-07-23T01:24:38;19.20;99.90
14934;DHT22;7560;51.364;12.384;2022-07-23T01:29:40;19.20;99.90
14934;DHT22;7560;51.364;12.384;2022-07-23T01:34:42;19.20;99.90
14934;DHT22;7560;51.364;12.384;2022-07-23T01:39:44;19.30;99.90
14934;DHT22;7560;51.364;12.384;2022-07-23T01:44:46;19.30;99.90
14934;DHT22;7560;51.364;12.384;2022-07-23T01:49:48;19.20;99.90
14934;DHT22;7560;51.364;12.384;2022-07-23T01:54:49;19.20;99.90
14934;DHT22;7560;51.364;12.384;2022-07-23T01:59:51;19.20;99.90
14934;DHT22;7560;51.364;12.384;2022-07-23T02:04:53;19.20;99.90
14934;DHT22;7560;51.364;12.384;2022-07-23T02:09:55;19.20;99.90
14934;DHT22;7560;51.364;12.384;2022-07-23T02:14:56;19.10;99.90
14934;DHT22;7560;51.364;12.384;2022-07-23T02:19:58;19.10;99.90
14934;DHT22;7560;51.364;12.384;2022-07-23T02:25:00;19.10;99.90
14934;DHT22;7560;51.364;12.384;2022-07-23T02:30:02;18.90;99.90
14934;DHT22;7560;51.364;12.384;2022-07-23T02:35:06;18.80;99.90
14934;DHT22;7560;51.364;12.384;2022-07-23T02:40:08;18.70;99.90
14934;DHT22;7560;51.364;12.384;2022-07-23T02:45:10;18.40;99.90
14934;DHT22;7560;51.364;12.384;2022-07-23T02:50:12;18.40;99.90
14934;DHT22;7560;51.364;12.384;2022-07-23T02:55:14;18.30;99.90
14934;DHT22;7560;51.364;12.384;2022-07-23T03:00:16;18.20;99.90
14934;DHT22;7560;51.364;12.384;2022-07-23T03:05:17;18.20;99.90
14934;DHT22;7560;51.364;12.384;2022-07-23T03:10:19;18.20;99.90
14934;DHT22;7560;51.364;12.384;2022-07-23T03:15:21;18.10;99.90
14934;DHT22;7560;51.364;12.384;2022-07-23T03:20:23;18.30;99.90
14934;DHT22;7560;51.364;12.384;2022-07-23T03:25:25;18.30;99.90
14934;DHT22;7560;51.364;12.384;2022-07-23T03:30:27;18.20;99.90
14934;DHT22;7560;51.364;12.384;2022-07-23T03:35:28;18.20;99.90
14934;DHT22;7560;51.364;12.384;2022-07-23T03:40:30;18.10;99.90
14934;DHT22;7560;51.364;12.384;2022-07-23T03:45:32;18.10;99.90
14934;DHT22;7560;51.364;12.384;2022-07-23T03:50:34;18.20;99.90
14934;DHT22;7560;51.364;12.384;2022-07-23T03:55:36;18.30;99.90
14934;DHT22;7560;51.364;12.384;2022-07-23T04:00:37;18.30;99.90
14934;DHT22;7560;51.364;12.384;2022-07-23T04:05:39;18.30;99.90
14934;DHT22;7560;51.364;12.384;2022-07-23T04:10:41;18.30;99.90
14934;DHT22;7560;51.364;12.384;2022-07-23T04:15:43;18.20;99.90
14934;DHT22;7560;51.364;12.384;2022-07-23T04:20:45;18.40;99.90
14934;DHT22;7560;51.364;12.384;2022-07-23T04:25:46;18.60;99.90
14934;DHT22;7560;51.364;12.384;2022-07-23T04:30:48;18.60;99.90
14934;DHT22;7560;51.364;12.384;2022-07-23T04:35:50;18.60;99.90
14934;DHT22;7560;51.364;12.384;2022-07-23T04:40:52;18.50;99.90
14934;DHT22;7560;51.364;12.384;2022-07-23T04:45:54;18.20;99.90
14934;DHT22;7560;51.364;12.384;2022-07-23T04:50:56;18.30;99.90
14934;DHT22;7560;51.364;12.384;2022-07-23T04:55:58;18.00;99.90
14934;DHT22;7560;51.364;12.384;2022-07-23T05:00:59;17.90;99.90
14934;DHT22;7560;51.364;12.384;2022-07-23T05:06:01;17.90;99.90
14934;DHT22;7560;51.364;12.384;2022-07-23T05:11:04;17.70;99.90
14934;DHT22;7560;51.364;12.384;2022-07-23T05:16:06;17.70;99.90
14934;DHT22;7560;51.364;12.384;2022-07-23T05:21:08;17.90;99.90
14934;DHT22;7560;51.364;12.384;2022-07-23T05:26:10;18.10;99.90
14934;DHT22;7560;51.364;12.384;2022-07-23T05:31:12;17.30;99.90
14934;DHT22;7560;51.364;12.384;2022-07-23T05:36:14;16.90;99.90
14934;DHT22;7560;51.364;12.384;2022-07-23T05:41:15;16.60;99.90
14934;DHT22;7560;51.364;12.384;2022-07-23T05:46:17;16.70;99.90
14934;DHT22;7560;51.364;12.384;2022-07-23T05:51:20;16.60;99.90
14934;DHT22;7560;51.364;12.384;2022-07-23T05:56:22;16.60;99.90
14934;DHT22;7560;51.364;12.384;2022-07-23T06:01:24;17.00;99.90
14934;DHT22;7560;51.364;12.384;2022-07-23T06:06:26;17.10;99.90
14934;DHT22;7560;51.364;12.384;2022-07-23T06:11:28;17.40;99.90
14934;DHT22;7560;51.364;12.384;2022-07-23T06:16:30;17.70;99.90
14934;DHT22;7560;51.364;12.384;2022-07-23T06:21:32;17.90;99.90
14934;DHT22;7560;51.364;12.384;2022-07-23T06:26:47;18.00;99.90
14934;DHT22;7560;51.364;12.384;2022-07-23T06:31:49;18.20;99.90
14934;DHT22;7560;51.364;12.384;2022-07-23T06:36:51;18.50;99.90
14934;DHT22;7560;51.364;12.384;2022-07-23T06:41:53;18.90;99.90
14934;DHT22;7560;51.364;12.384;2022-07-23T06:47:01;19.60;99.90
14934;DHT22;7560;51.364;12.384;2022-07-23T06:52:03;19.40;99.90
14934;DHT22;7560;51.364;12.384;2022-07-23T06:57:05;19.40;99.90
14934;DHT22;7560;51.364;12.384;2022-07-23T07:02:07;19.60;99.90
14934;DHT22;7560;51.364;12.384;2022-07-23T07:07:10;19.40;99.90
14934;DHT22;7560;51.364;12.384;2022-07-23T07:12:11;19.50;99.90
14934;DHT22;7560;51.364;12.384;2022-07-23T07:17:13;19.80;99.90
14934;DHT22;7560;51.364;12.384;2022-07-23T07:22:16;19.20;99.90
14934;DHT22;7560;51.364;12.384;2022-07-23T07:27:18;19.20;99.90
14934;DHT22;7560;51.364;12.384;2022-07-23T07:32:20;19.30;99.90
14934;DHT22;7560;51.364;12.384;2022-07-23T07:37:42;19.30;99.90
14934;DHT22;7560;51.364;12.384;2022-07-23T07:42:47;19.30;99.90
14934;DHT22;7560;51.364;12.384;2022-07-23T07:47:51;19.30;99.90
14934;DHT22;7560;51.364;12.384;2022-07-23T07:52:53;19.60;99.90
14934;DHT22;7560;51.364;12.384;2022-07-23T07:57:55;19.80;99.90
14934;DHT22;7560;51.364;12.384;2022-07-23T08:02:57;19.80;99.90
14934;DHT22;7560;51.364;12.384;2022-07-23T08:08:00;19.60;99.90
14934;DHT22;7560;51.364;12.384;2022-07-23T08:13:02;19.70;99.90
14934;DHT22;7560;51.364;12.384;2022-07-23T08:18:04;21.00;99.90
14934;DHT22;7560;51.364;12.384;2022-07-23T08:23:07;21.70;99.90
14934;DHT22;7560;51.364;12.384;2022-07-23T08:28:11;21.50;99.90
14934;DHT22;7560;51.364;12.384;2022-07-23T08:33:15;21.90;99.90
14934;DHT22;7560;51.364;12.384;2022-07-23T08:38:34;21.40;99.90
14934;DHT22;7560;51.364;12.384;2022-07-23T08:43:37;21.00;99.90
14934;DHT22;7560;51.364;12.384;2022-07-23T08:48:39;21.80;99.90
14934;DHT22;7560;51.364;12.384;2022-07-23T08:53:41;21.50;99.90
14934;DHT22;7560;51.364;12.384;2022-07-23T08:58:44;20.70;99.90
14934;DHT22;7560;51.364;12.384;2022-07-23T09:03:45;20.20;99.90
14934;DHT22;7560;51.364;12.384;2022-07-23T09:08:47;20.30;99.90
14934;DHT22;7560;51.364;12.384;2022-07-23T09:13:53;20.70;99.90
14934;DHT22;7560;51.364;12.384;2022-07-23T09:18:57;20.10;99.90
14934;DHT22;7560;51.364;12.384;2022-07-23T09:24:10;19.70;99.90
14934;DHT22;7560;51.364;12.384;2022-07-23T09:29:22;19.70;99.90
14934;DHT22;7560;51.364;12.384;2022-07-23T09:34:32;19.70;99.90
14934;DHT22;7560;51.364;12.384;2022-07-23T09:39:35;19.80;99.90
14934;DHT22;7560;51.364;12.384;2022-07-23T09:44:44;19.90;99.90
14934;DHT22;7560;51.364;12.384;2022-07-23T09:55:05;20.10;99.90
14934;DHT22;7560;51.364;12.384;2022-07-23T10:00:09;20.20;99.90
14934;DHT22;7560;51.364;12.384;2022-07-23T10:05:12;20.50;99.90
14934;DHT22;7560;51.364;12.384;2022-07-23T10:10:15;20.00;99.90
14934;DHT22;7560;51.364;12.384;2022-07-23T10:15:17;19.50;99.90
14934;DHT22;7560;51.364;12.384;2022-07-23T10:20:19;20.40;99.90
14934;DHT22;7560;51.364;12.384;2022-07-23T10:25:30;21.00;99.90
14934;DHT22;7560;51.364;12.384;2022-07-23T10:41:04;21.70;99.90
14934;DHT22;7560;51.364;12.384;2022-07-23T10:46:24;22.40;99.90
14934;DHT22;7560;51.364;12.384;2022-07-23T10:51:39;22.00;99.90
14934;DHT22;7560;51.364;12.384;2022-07-23T11:02:22;21.50;99.90
14934;DHT22;7560;51.364;12.384;2022-07-23T11:07:27;21.30;99.90
14934;DHT22;7560;51.364;12.384;2022-07-23T11:22:56;21.70;99.90
14934;DHT22;7560;51.364;12.384;2022-07-23T11:28:13;21.40;99.90
14934;DHT22;7560;51.364;12.384;2022-07-23T11:33:18;22.00;99.90
14934;DHT22;7560;51.364;12.384;2022-07-23T11:38:22;22.00;99.90
14934;DHT22;7560;51.364;12.384;2022-07-23T11:43:24;22.50;99.90
14934;DHT22;7560;51.364;12.384;2022-07-23T11:48:28;22.80;99.90
14934;DHT22;7560;51.364;12.384;2022-07-23T11:53:32;23.90;99.90
14934;DHT22;7560;51.364;12.384;2022-07-23T11:58:55;24.80;99.90
14934;DHT22;7560;51.364;12.384;2022-07-23T12:04:01;23.80;99.90
14934;DHT22;7560;51.364;12.384;2022-07-23T12:14:15;24.00;99.90
14934;DHT22;7560;51.364;12.384;2022-07-23T12:19:17;24.90;99.90
14934;DHT22;7560;51.364;12.384;2022-07-23T12:24:19;24.40;99.90
14934;DHT22;7560;51.364;12.384;2022-07-23T12:29:22;24.90;99.90
14934;DHT22;7560;51.364;12.384;2022-07-23T12:34:25;25.60;99.90
14934;DHT22;7560;51.364;12.384;2022-07-23T12:39:34;25.20;99.90
14934;DHT22;7560;51.364;12.384;2022-07-23T12:44:36;25.20;99.90
14934;DHT22;7560;51.364;12.384;2022-07-23T12:49:40;25.70;99.90
14934;DHT22;7560;51.364;12.384;2022-07-23T12:54:44;26.50;99.90
14934;DHT22;7560;51.364;12.384;2022-07-23T12:59:47;26.30;99.90
14934;DHT22;7560;51.364;12.384;2022-07-23T13:04:49;26.30;99.90
14934;DHT22;7560;51.364;12.384;2022-07-23T13:09:51;25.50;99.90
14934;DHT22;7560;51.364;12.384;2022-07-23T13:14:53;25.00;99.90
14934;DHT22;7560;51.364;12.384;2022-07-23T13:19:54;24.70;99.90
14934;DHT22;7560;51.364;12.384;2022-07-23T13:24:56;24.70;99.90
14934;DHT22;7560;51.364;12.384;2022-07-23T13:29:58;24.80;99.90
14934;DHT22;7560;51.364;12.384;2022-07-23T13:35:00;24.70;99.90
14934;DHT22;7560;51.364;12.384;2022-07-23T13:40:03;24.50;99.90
14934;DHT22;7560;51.364;12.384;2022-07-23T13:45:19;24.60;99.90
14934;DHT22;7560;51.364;12.384;2022-07-23T13:50:21;24.70;99.90
14934;DHT22;7560;51.364;12.384;2022-07-23T13:55:23;25.10;99.90
14934;DHT22;7560;51.364;12.384;2022-07-23T14:00:29;25.60;99.90
14934;DHT22;7560;51.364;12.384;2022-07-23T14:05:52;25.50;99.90
14934;DHT22;7560;51.364;12.384;2022-07-23T14:10:58;26.60;99.90
14934;DHT22;7560;51.364;12.384;2022-07-23T14:16:01;26.20;99.90
14934;DHT22;7560;51.364;12.384;2022-07-23T14:21:03;26.00;99.90
14934;DHT22;7560;51.364;12.384;2022-07-23T14:26:05;24.90;99.90
14934;DHT22;7560;51.364;12.384;2022-07-23T14:31:07;25.90;99.90
14934;DHT22;7560;51.364;12.384;2022-07-23T14:36:21;26.30;99.90
14934;DHT22;7560;51.364;12.384;2022-07-23T14:41:23;26.10;99.90
14934;DHT22;7560;51.364;12.384;2022-07-23T14:46:29;26.20;99.90
14934;DHT22;7560;51.364;12.384;2022-07-23T14:51:31;27.00;99.90
14934;DHT22;7560;51.364;12.384;2022-07-23T14:56:32;28.70;99.90
14934;DHT22;7560;51.364;12.384;2022-07-23T15:01:36;28.70;99.90
14934;DHT22;7560;51.364;12.384;2022-07-23T15:06:38;27.90;99.90
14934;DHT22;7560;51.364;12.384;2022-07-23T15:11:41;28.90;99.90
14934;DHT22;7560;51.364;12.384;2022-07-23T15:16:44;28.50;99.90
14934;DHT22;7560;51.364;12.384;2022-07-23T15:21:48;29.10;99.90
14934;DHT22;7560;51.364;12.384;2022-07-23T15:26:50;29.70;99.90
14934;DHT22;7560;51.364;12.384;2022-07-23T15:31:52;29.60;99.90
14934;DHT22;7560;51.364;12.384;2022-07-23T15:37:00;30.60;99.90
14934;DHT22;7560;51.364;12.384;2022-07-23T15:42:03;30.60;99.90
14934;DHT22;7560;51.364;12.384;2022-07-23T15:47:04;30.70;99.90
14934;DHT22;7560;51.364;12.384;2022-07-23T15:52:06;30.50;99.90
14934;DHT22;7560;51.364;12.384;2022-07-23T15:57:08;30.30;99.90
14934;DHT22;7560;51.364;12.384;2022-07-23T16:02:11;28.80;99.90
14934;DHT22;7560;51.364;12.384;2022-07-23T16:07:13;28.50;99.90
14934;DHT22;7560;51.364;12.384;2022-07-23T16:12:16;28.70;99.90
14934;DHT22;7560;51.364;12.384;2022-07-23T16:17:18;28.40;99.90
14934;DHT22;7560;51.364;12.384;2022-07-23T16:22:19;28.90;99.90
14934;DHT22;7560;51.364;12.384;2022-07-23T16:27:21;28.60;99.90
14934;DHT22;7560;51.364;12.384;2022-07-23T16:32:23;28.80;99.90
14934;DHT22;7560;51.364;12.384;2022-07-23T16:37:25;29.00;99.90
14934;DHT22;7560;51.364;12.384;2022-07-23T16:42:27;29.70;99.90
14934;DHT22;7560;51.364;12.384;2022-07-23T16:47:30;29.60;99.90
14934;DHT22;7560;51.364;12.384;2022-07-23T16:52:32;29.70;99.90
14934;DHT22;7560;51.364;12.384;2022-07-23T16:57:33;29.50;99.90
14934;DHT22;7560;51.364;12.384;2022-07-23T17:02:36;29.10;99.90
14934;DHT22;7560;51.364;12.384;2022-07-23T17:07:38;29.00;99.90
14934;DHT22;7560;51.364;12.384;2022-07-23T17:12:40;28.20;99.90
14934;DHT22;7560;51.364;12.384;2022-07-23T17:17:42;28.40;99.90
14934;DHT22;7560;51.364;12.384;2022-07-23T17:22:44;28.00;99.90
14934;DHT22;7560;51.364;12.384;2022-07-23T17:27:47;28.20;99.90
14934;DHT22;7560;51.364;12.384;2022-07-23T17:32:49;27.60;99.90
14934;DHT22;7560;51.364;12.384;2022-07-23T17:37:51;28.00;99.90
14934;DHT22;7560;51.364;12.384;2022-07-23T17:42:53;27.80;99.90
14934;DHT22;7560;51.364;12.384;2022-07-23T17:47:55;27.80;99.90
14934;DHT22;7560;51.364;12.384;2022-07-23T17:52:57;28.90;99.90
14934;DHT22;7560;51.364;12.384;2022-07-23T17:57:59;27.70;99.90
14934;DHT22;7560;51.364;12.384;2022-07-23T18:03:03;27.20;99.90
14934;DHT22;7560;51.364;12.384;2022-07-23T18:08:08;26.60;99.90
14934;DHT22;7560;51.364;12.384;2022-07-23T18:13:09;26.40;99.90
14934;DHT22;7560;51.364;12.384;2022-07-23T18:18:11;25.80;99.90
14934;DHT22;7560;51.364;12.384;2022-07-23T18:23:13;25.30;99.90
14934;DHT22;7560;51.364;12.384;2022-07-23T18:28:15;25.20;99.90
14934;DHT22;7560;51.364;12.384;2022-07-23T18:33:17;25.00;99.90
14934;DHT22;7560;51.364;12.384;2022-07-23T18:38:18;24.70;99.90
14934;DHT22;7560;51.364;12.384;2022-07-23T18:43:21;24.40;99.90
14934;DHT22;7560;51.364;12.384;2022-07-23T18:48:23;24.20;99.90
14934;DHT22;7560;51.364;12.384;2022-07-23T18:53:25;24.00;99.90
14934;DHT22;7560;51.364;12.384;2022-07-23T18:58:27;24.00;99.90
14934;DHT22;7560;51.364;12.384;2022-07-23T19:03:29;23.80;99.90
14934;DHT22;7560;51.364;12.384;2022-07-23T19:08:31;23.50;99.90
14934;DHT22;7560;51.364;12.384;2022-07-23T19:13:33;23.40;99.90
14934;DHT22;7560;51.364;12.384;2022-07-23T19:18:35;23.30;99.90
14934;DHT22;7560;51.364;12.384;2022-07-23T19:23:37;23.10;99.90
14934;DHT22;7560;51.364;12.384;2022-07-23T19:28:39;22.90;99.90
14934;DHT22;7560;51.364;12.384;2022-07-23T19:33:40;22.80;99.90
14934;DHT22;7560;51.364;12.384;2022-07-23T19:38:42;22.70;99.90
14934;DHT22;7560;51.364;12.384;2022-07-23T19:43:44;22.60;99.90
14934;DHT22;7560;51.364;12.384;2022-07-23T19:48:46;22.40;99.90
14934;DHT22;7560;51.364;12.384;2022-07-23T19:53:48;22.20;99.90
14934;DHT22;7560;51.364;12.384;2022-07-23T19:58:50;22.00;99.90
14934;DHT22;7560;51.364;12.384;2022-07-23T20:03:52;21.90;99.90
14934;DHT22;7560;51.364;12.384;2022-07-23T20:08:54;21.80;99.90
14934;DHT22;7560;51.364;12.384;2022-07-23T20:13:57;21.70;99.90
14934;DHT22;7560;51.364;12.384;2022-07-23T20:18:58;21.70;99.90
14934;DHT22;7560;51.364;12.384;2022-07-23T20:24:01;21.60;99.90
14934;DHT22;7560;51.364;12.384;2022-07-23T20:29:12;21.50;99.90
14934;DHT22;7560;51.364;12.384;2022-07-23T20:34:15;21.40;99.90
14934;DHT22;7560;51.364;12.384;2022-07-23T20:39:17;21.30;99.90
14934;DHT22;7560;51.364;12.384;2022-07-23T20:44:19;21.20;99.90
14934;DHT22;7560;51.364;12.384;2022-07-23T20:49:22;21.10;99.90
14934;DHT22;7560;51.364;12.384;2022-07-23T20:54:24;21.00;99.90
14934;DHT22;7560;51.364;12.384;2022-07-23T20:59:26;20.90;99.90
14934;DHT22;7560;51.364;12.384;2022-07-23T21:04:31;20.90;99.90
14934;DHT22;7560;51.364;12.384;2022-07-23T21:09:33;20.80;99.90
14934;DHT22;7560;51.364;12.384;2022-07-23T21:14:35;20.70;99.90
14934;DHT22;7560;51.364;12.384;2022-07-23T21:19:37;20.70;99.90
14934;DHT22;7560;51.364;12.384;2022-07-23T21:24:39;20.60;99.90
14934;DHT22;7560;51.364;12.384;2022-07-23T21:29:42;20.60;99.90
14934;DHT22;7560;51.364;12.384;2022-07-23T21:34:44;20.50;99.90
14934;DHT22;7560;51.364;12.384;2022-07-23T21:39:46;20.40;99.90
14934;DHT22;7560;51.364;12.384;2022-07-23T21:44:47;20.40;99.90
14934;DHT22;7560;51.364;12.384;2022-07-23T21:49:49;20.20;99.90
14934;DHT22;7560;51.364;12.384;2022-07-23T21:54:51;20.10;99.90
14934;DHT22;7560;51.364;12.384;2022-07-23T21:59:53;19.90;99.90
14934;DHT22;7560;51.364;12.384;2022-07-23T22:04:55;19.80;99.90
14934;DHT22;7560;51.364;12.384;2022-07-23T22:09:56;19.70;99.90
14934;DHT22;7560;51.364;12.384;2022-07-23T22:15:05;19.60;99.90
14934;DHT22;7560;51.364;12.384;2022-07-23T22:20:07;19.50;99.90
14934;DHT22;7560;51.364;12.384;2022-07-23T22:25:09;19.50;99.90
14934;DHT22;7560;51.364;12.384;2022-07-23T22:30:17;19.50;99.90
14934;DHT22;7560;51.364;12.384;2022-07-23T22:35:19;19.40;99.90
14934;DHT22;7560;51.364;12.384;2022-07-23T22:40:21;19.40;99.90
14934;DHT22;7560;51.364;12.384;2022-07-23T22:45:22;19.30;99.90
14934;DHT22;7560;51.364;12.384;2022-07-23T22:50:24;19.20;99.90
14934;DHT22;7560;51.364;12.384;2022-07-23T22:55:26;19.00;99.90
14934;DHT22;7560;51.364;12.384;2022-07-23T23:00:37;18.90;99.90
14934;DHT22;7560;51.364;12.384;2022-07-23T23:05:39;18.80;99.90
14934;DHT22;7560;51.364;12.384;2022-07-23T23:10:41;18.70;99.90
14934;DHT22;7560;51.364;12.384;2022-07-23T23:15:43;18.60;99.90
14934;DHT22;7560;51.364;12.384;2022-07-23T23:20:45;18.60;99.90
14934;DHT22;7560;51.364;12.384;2022-07-23T23:25:46;18.60;99.90
14934;DHT22;7560;51.364;12.384;2022-07-23T23:30:48;18.60;99.90
14934;DHT22;7560;51.364;12.384;2022-07-23T23:35:50;18.50;99.90
14934;DHT22;7560;51.364;12.384;2022-07-23T23:40:52;18.40;99.90
14934;DHT22;7560;51.364;12.384;2022-07-23T23:45:54;18.30;99.90
14934;DHT22;7560;51.364;12.384;2022-07-23T23:50:55;18.30;99.90
14934;DHT22;7560;51.364;12.384;2022-07-23T23:55:57;18.20;99.90
